Time;durP1;ratioP1;P1;durP2;ratioP2;P2;SDS_P1;SDS_P2;PMS_P1;PMS_P2;Temp;Humidity;BMP_temperature;BMP_pressure;BME280_temperature;BME280_humidity;BME280_pressure;Samples;Min_cycle;Max_cycle;Signal;HPM_P1;HPM_P2
2022/12/17 13:06:45;;;;;;;18.95;10.93;;;;;;;-2.08;67.19;100145.69;5033911;28;20059;-55
2022/12/17 13:09:16;;;;;;;11.50;6.45;;;;;;;-1.80;66.47;100150.25;5033086;28;20037;-59
2022/12/17 13:11:47;;;;;;;18.52;10.63;;;;;;;-2.00;66.72;100146.34;5032687;28;20029;-55
2022/12/17 13:14:28;;;;;;;20.83;10.90;;;;;;;-2.16;67.40;100130.09;5032685;28;20477;-53
2022/12/17 13:16:58;;;;;;;16.55;8.48;;;;;;;-1.98;66.91;100139.28;5032909;28;20057;-58
2022/12/17 13:19:30;;;;;;;26.25;12.15;;;;;;;-2.10;67.31;100139.59;5033428;28;20120;-57
2022/12/17 13:22:10;;;;;;;20.38;10.95;;;;;;;-2.07;66.92;100144.78;5033035;28;20119;-59
2022/12/17 13:24:37;;;;;;;21.52;11.80;;;;;;;-2.12;67.05;100149.28;5033379;28;20037;-59
2022/12/17 13:27:02;;;;;;;15.98;9.07;;;;;;;-2.07;67.29;100136.91;5033524;28;20040;-58
2022/12/17 13:29:33;;;;;;;25.30;12.05;;;;;;;-1.98;66.75;100139.28;5033091;28;20128;-58
2022/12/17 13:32:16;;;;;;;19.83;11.13;;;;;;;-2.18;66.82;100124.88;5033039;28;20112;-58
2022/12/17 13:34:44;;;;;;;20.35;12.30;;;;;;;-2.00;66.51;100169.97;5033184;28;20037;-56
2022/12/17 13:37:34;;;;;;;21.50;10.77;;;;;;;-1.97;66.94;100156.75;5033368;28;20042;-55
2022/12/17 13:40:24;;;;;;;18.98;10.40;;;;;;;-1.96;66.59;100160.28;5032720;28;20485;-54
2022/12/17 13:42:49;;;;;;;18.88;10.75;;;;;;;-2.05;66.44;100153.47;5033509;28;20025;-56
2022/12/17 13:45:20;;;;;;;19.77;11.43;;;;;;;-2.25;67.13;100151.31;5033521;28;20052;-54
2022/12/17 13:47:53;;;;;;;14.23;7.88;;;;;;;-1.98;66.83;100147.16;5033445;28;20035;-55
2022/12/17 13:50:27;;;;;;;20.77;11.43;;;;;;;-2.13;66.57;100113.44;5032926;28;20415;-53
2022/12/17 13:52:53;;;;;;;15.63;7.97;;;;;;;-2.10;66.66;100114.22;5031635;28;20041;-55
2022/12/17 13:55:25;;;;;;;13.82;6.15;;;;;;;-1.93;66.70;100113.84;5033348;28;20052;-54
2022/12/17 13:57:52;;;;;;;18.13;11.32;;;;;;;-1.98;66.13;100113.06;5032955;28;20091;-62
2022/12/17 14:00:23;;;;;;;19.83;11.00;;;;;;;-2.01;66.47;100131.50;5032908;28;20029;-56
2022/12/17 14:02:50;;;;;;;18.15;9.75;;;;;;;-2.06;66.88;100117.63;5032249;28;20072;-57
2022/12/17 14:05:21;;;;;;;18.48;11.30;;;;;;;-2.07;67.04;100116.75;5033201;28;20045;-56
2022/12/17 14:07:46;;;;;;;20.80;11.20;;;;;;;-2.15;67.76;100096.88;5014600;28;20044;-55
2022/12/17 14:10:18;;;;;;;24.98;12.52;;;;;;;-1.95;66.32;100084.13;5032944;28;20037;-53
2022/12/17 14:12:44;;;;;;;21.88;12.20;;;;;;;-2.05;66.58;100088.75;5033077;28;20395;-59
2022/12/17 14:15:28;;;;;;;22.23;13.35;;;;;;;-2.09;66.58;100084.44;5032421;28;20030;-57
2022/12/17 14:17:55;;;;;;;24.42;12.88;;;;;;;-2.12;66.80;100076.66;5033408;28;20041;-58
2022/12/17 14:20:26;;;;;;;21.55;11.77;;;;;;;-2.23;67.52;100092.66;5033173;28;20029;-55
2022/12/17 14:22:57;;;;;;;26.73;12.77;;;;;;;-2.18;67.47;100103.91;5033085;28;20029;-61
2022/12/17 14:25:28;;;;;;;22.25;12.10;;;;;;;-2.23;67.04;100074.28;5033539;28;20465;-59
2022/12/17 14:27:59;;;;;;;19.58;10.73;;;;;;;-1.86;66.76;100104.03;5033421;28;20029;-56
2022/12/17 14:30:35;;;;;;;24.50;12.65;;;;;;;-2.03;66.82;100113.19;5029011;28;20077;-59
2022/12/17 14:33:01;;;;;;;22.40;12.15;;;;;;;-2.10;67.15;100098.47;5032295;28;20552;-55
2022/12/17 14:35:29;;;;;;;20.27;12.55;;;;;;;-2.11;67.27;100103.78;5031951;28;20132;-51
2022/12/17 14:37:55;;;;;;;21.25;11.88;;;;;;;-2.24;67.34;100088.31;5032263;28;20029;-56
2022/12/17 14:40:23;;;;;;;19.10;11.38;;;;;;;-2.40;67.58;100064.22;5032402;28;20043;-60
2022/12/17 14:42:50;;;;;;;22.15;12.88;;;;;;;-2.15;67.77;100102.97;5032240;28;20072;-52
2022/12/17 14:45:15;;;;;;;22.65;12.57;;;;;;;-1.90;66.88;100100.63;5032144;28;20095;-56
2022/12/17 14:47:53;;;;;;;22.67;12.48;;;;;;;-1.94;67.13;100098.97;5031930;28;20033;-58
2022/12/17 14:50:18;;;;;;;20.90;11.02;;;;;;;-1.82;66.18;100086.44;5032448;28;20045;-56
2022/12/17 14:52:52;;;;;;;20.77;12.07;;;;;;;-2.00;66.66;100085.16;5032267;28;20076;-56
2022/12/17 14:55:37;;;;;;;20.75;11.40;;;;;;;-2.06;67.43;100084.38;5031983;28;20059;-54
2022/12/17 14:58:11;;;;;;;22.13;11.65;;;;;;;-2.10;66.88;100095.84;5034168;28;20113;-55
2022/12/17 15:00:39;;;;;;;22.27;13.02;;;;;;;-2.07;67.10;100095.78;5031790;28;20420;-55
2022/12/17 15:03:10;;;;;;;17.73;10.23;;;;;;;-2.04;66.59;100094.84;5032024;28;20029;-56
2022/12/17 15:05:36;;;;;;;27.73;13.13;;;;;;;-2.04;66.52;100084.34;5028420;28;20420;-55
2022/12/17 15:08:04;;;;;;;19.17;11.25;;;;;;;-1.97;67.49;100083.28;5026960;28;20484;-57
2022/12/17 15:10:29;;;;;;;21.35;12.15;;;;;;;-1.99;66.25;100069.34;5030460;28;20032;-52
2022/12/17 15:12:56;;;;;;;22.02;13.18;;;;;;;-2.11;66.37;100067.03;5031782;28;20030;-54
2022/12/17 15:15:21;;;;;;;23.42;13.02;;;;;;;-1.98;66.53;100057.09;5031964;28;20448;-53
2022/12/17 15:17:47;;;;;;;25.05;12.85;;;;;;;-2.04;66.38;100045.00;5031673;28;20051;-51
2022/12/17 15:20:19;;;;;;;21.08;12.70;;;;;;;-2.03;67.11;100038.84;5031466;28;20029;-52
2022/12/17 15:22:46;;;;;;;23.77;12.48;;;;;;;-1.97;66.59;100033.44;5032048;28;20179;-53
2022/12/17 15:25:17;;;;;;;27.42;13.57;;;;;;;-2.04;66.63;100037.13;5031709;28;20026;-54
2022/12/17 15:27:43;;;;;;;22.85;13.23;;;;;;;-2.12;66.44;99997.97;5030542;28;20057;-57
2022/12/17 15:30:13;;;;;;;24.73;12.48;;;;;;;-1.80;66.03;100019.03;5031818;28;20061;-58
2022/12/17 15:32:39;;;;;;;22.27;12.27;;;;;;;-2.06;66.32;100005.66;5031424;28;20064;-53
2022/12/17 15:35:05;;;;;;;23.80;12.32;;;;;;;-1.86;65.45;100014.78;5034829;28;20080;-53
2022/12/17 15:37:30;;;;;;;27.23;14.13;;;;;;;-2.15;66.60;100020.81;5031986;28;20029;-55
2022/12/17 15:39:56;;;;;;;28.95;13.75;;;;;;;-2.30;67.23;100030.75;5035328;28;20037;-52
2022/12/17 15:45:06;;;;;;;22.25;12.38;;;;;;;-2.21;67.63;100043.63;5035324;28;20136;-61
2022/12/17 15:47:31;;;;;;;23.75;13.55;;;;;;;-2.15;67.27;100028.66;5035185;28;20103;-62
2022/12/17 15:49:57;;;;;;;24.20;14.00;;;;;;;-2.15;67.85;100015.56;5035028;28;20464;-62
2022/12/17 15:52:22;;;;;;;24.90;13.65;;;;;;;-1.76;66.26;100021.53;5035403;28;20067;-62
2022/12/17 15:54:48;;;;;;;25.98;13.68;;;;;;;-2.13;66.68;99969.16;5034945;28;20037;-63
2022/12/17 15:57:13;;;;;;;27.17;13.65;;;;;;;-1.96;66.35;100003.66;5034472;28;20049;-62
2022/12/17 15:59:39;;;;;;;24.58;13.50;;;;;;;-2.00;66.67;100014.31;5034836;28;20022;-62
2022/12/17 16:02:04;;;;;;;26.00;13.77;;;;;;;-2.11;67.35;100032.94;5035069;28;20119;-62
2022/12/17 16:04:29;;;;;;;23.67;13.30;;;;;;;-2.10;67.78;100047.78;5034847;28;20108;-62
2022/12/17 16:06:55;;;;;;;24.05;12.77;;;;;;;-2.03;66.83;100067.72;5035091;28;20037;-62
2022/12/17 16:09:25;;;;;;;26.25;13.30;;;;;;;-1.97;67.40;100074.56;5035236;28;20037;-63
2022/12/17 16:11:54;;;;;;;24.30;13.07;;;;;;;-1.63;65.84;100064.06;5035202;28;20026;-62
2022/12/17 16:14:22;;;;;;;15.27;8.32;;;;;;;-1.72;66.43;100064.28;5034556;28;20037;-61
2022/12/17 16:16:48;;;;;;;24.77;14.10;;;;;;;-1.75;65.79;100039.00;5033512;28;20029;-60
2022/12/17 16:19:13;;;;;;;24.73;13.68;;;;;;;-1.97;66.80;100040.47;5034535;28;20025;-64
2022/12/17 16:21:38;;;;;;;24.70;13.63;;;;;;;-1.97;66.29;100030.81;5032053;28;20021;-62
2022/12/17 16:24:04;;;;;;;20.48;10.82;;;;;;;-2.02;66.96;100022.19;5034054;28;20053;-62
2022/12/17 16:26:30;;;;;;;23.15;13.38;;;;;;;-1.98;66.90;100021.22;5034195;28;20559;-62
2022/12/17 16:28:56;;;;;;;24.27;13.65;;;;;;;-1.77;65.92;100018.94;5033775;28;20132;-62
2022/12/17 16:31:22;;;;;;;24.02;13.90;;;;;;;-1.96;66.31;100019.41;5034454;28;20071;-62
2022/12/17 16:33:47;;;;;;;26.77;15.23;;;;;;;-2.25;67.14;99983.44;5033762;28;20123;-62
2022/12/17 16:36:15;;;;;;;25.25;13.68;;;;;;;-2.15;67.33;99997.19;5034767;28;20364;-61
2022/12/17 16:38:52;;;;;;;22.50;13.43;;;;;;;-1.91;67.44;100035.03;5034416;28;20034;-62
2022/12/17 16:41:20;;;;;;;26.27;14.70;;;;;;;-1.91;66.99;100021.94;5034172;28;20143;-62
2022/12/17 16:43:46;;;;;;;27.60;15.10;;;;;;;-1.71;65.99;100024.00;5034421;28;20080;-61
2022/12/17 16:46:24;;;;;;;26.10;14.73;;;;;;;-1.85;67.27;100015.66;5034078;28;20033;-63
2022/12/17 16:48:49;;;;;;;27.30;14.70;;;;;;;-1.85;66.16;100015.66;5032633;28;20049;-63
2022/12/17 16:51:16;;;;;;;25.85;14.85;;;;;;;-1.91;66.68;100017.56;5033965;28;20102;-62
2022/12/17 16:53:43;;;;;;;25.50;14.98;;;;;;;-1.97;67.13;100012.44;5033729;28;20476;-62
2022/12/17 16:56:18;;;;;;;28.63;15.48;;;;;;;-1.86;66.82;100008.69;5033810;28;20034;-63
2022/12/17 16:58:43;;;;;;;30.40;15.30;;;;;;;-1.88;66.28;100017.47;5033604;28;20033;-62
2022/12/17 17:01:09;;;;;;;27.10;15.13;;;;;;;-1.94;67.32;100027.25;5066075;28;20041;-62
2022/12/17 17:03:40;;;;;;;24.52;12.88;;;;;;;-1.77;66.14;100018.94;5033680;28;20037;-62
2022/12/17 17:06:06;;;;;;;28.63;15.63;;;;;;;-1.97;66.24;100029.97;5033989;28;20030;-63
2022/12/17 17:08:34;;;;;;;27.23;14.35;;;;;;;-1.99;66.51;100043.09;5034009;28;20456;-61
2022/12/17 17:11:20;;;;;;;28.77;15.18;;;;;;;-1.78;66.16;100018.09;5033628;28;20033;-59
2022/12/17 17:13:53;;;;;;;28.15;15.20;;;;;;;-1.98;66.68;100005.47;5032823;28;20057;-62
2022/12/17 17:16:20;;;;;;;29.17;16.20;;;;;;;-2.05;66.56;99989.06;5032567;28;20464;-63
2022/12/17 17:18:46;;;;;;;25.30;13.65;;;;;;;-1.96;65.98;99984.44;5033775;28;20087;-62
2022/12/17 17:21:30;;;;;;;31.23;16.50;;;;;;;-2.00;66.22;99988.91;5033362;28;20033;-63
2022/12/17 17:24:02;;;;;;;31.25;15.40;;;;;;;-2.31;66.53;99947.75;5032639;28;20029;-63
2022/12/17 17:26:30;;;;;;;29.17;15.13;;;;;;;-2.06;66.79;99960.22;5033609;28;20057;-62
2022/12/17 17:28:56;;;;;;;30.40;14.98;;;;;;;-2.14;66.93;99967.44;5033938;28;20040;-62
2022/12/17 17:31:22;;;;;;;28.20;15.05;;;;;;;-1.91;66.11;99969.44;5032598;28;20648;-62
2022/12/17 17:33:49;;;;;;;27.70;15.77;;;;;;;-2.23;67.45;99943.16;5032938;28;20033;-63
2022/12/17 17:36:24;;;;;;;25.52;13.55;;;;;;;-2.34;67.83;99951.28;5033317;28;20033;-62
2022/12/17 17:38:51;;;;;;;27.77;13.95;;;;;;;-2.18;67.65;99949.13;5033385;28;20475;-63
2022/12/17 17:41:19;;;;;;;24.27;12.25;;;;;;;-2.04;66.58;99940.03;5032641;28;20029;-62
2022/12/17 17:43:45;;;;;;;27.45;15.43;;;;;;;-2.20;66.92;99937.81;5032782;28;20033;-63
2022/12/17 17:46:14;;;;;;;32.40;16.88;;;;;;;-2.27;66.91;99936.25;5033239;28;20036;-62
2022/12/17 17:48:40;;;;;;;33.08;16.42;;;;;;;-2.24;67.10;99951.06;5033180;28;20144;-62
2022/12/17 17:51:10;;;;;;;29.75;15.60;;;;;;;-2.26;67.26;99951.09;5032541;28;20037;-63
2022/12/17 17:53:36;;;;;;;30.83;15.65;;;;;;;-2.38;67.96;99951.44;5032908;28;20022;-62
2022/12/17 17:56:05;;;;;;;31.67;14.98;;;;;;;-2.41;68.34;99935.75;5032241;28;20044;-59
2022/12/17 17:58:31;;;;;;;30.58;16.48;;;;;;;-2.53;68.67;99935.16;5033071;28;20515;-62
2022/12/17 18:00:56;;;;;;;31.75;16.38;;;;;;;-2.34;67.82;99913.72;5032261;28;20116;-62
2022/12/17 18:03:22;;;;;;;29.00;14.90;;;;;;;-2.40;68.51;99919.97;5032294;28;20132;-63
2022/12/17 18:05:47;;;;;;;25.52;12.15;;;;;;;-2.06;66.67;99908.59;5032947;28;20033;-62
2022/12/17 18:08:13;;;;;;;27.35;15.85;;;;;;;-2.26;67.27;99910.91;5032672;28;20033;-63
2022/12/17 18:10:38;;;;;;;23.95;11.60;;;;;;;-2.28;67.81;99915.34;5032212;28;20064;-62
2022/12/17 18:15:47;;;;;;;23.15;11.77;;;;;;;-2.14;67.29;99915.81;5031778;28;20034;-62
2022/12/17 18:18:13;;;;;;;29.60;14.27;;;;;;;-2.49;67.57;99902.72;5032331;28;20747;-62
2022/12/17 18:20:38;;;;;;;29.15;16.00;;;;;;;-2.56;68.42;99919.50;5032514;28;20413;-63
2022/12/17 18:23:03;;;;;;;29.85;15.75;;;;;;;-2.48;68.36;99911.47;5032188;28;20025;-62
2022/12/17 18:25:29;;;;;;;29.27;15.95;;;;;;;-2.58;68.80;99918.69;5032405;28;20029;-62
2022/12/17 18:27:54;;;;;;;21.98;11.32;;;;;;;-2.61;68.54;99877.69;5032466;28;20041;-63
2022/12/17 18:30:20;;;;;;;29.40;15.98;;;;;;;-2.47;67.04;99882.56;5032707;28;20104;-63
2022/12/17 18:32:48;;;;;;;25.52;13.40;;;;;;;-2.51;67.48;99904.53;5031275;28;20099;-64
2022/12/17 18:35:14;;;;;;;26.92;13.95;;;;;;;-2.70;68.07;99875.31;5032037;28;20313;-63
2022/12/17 18:37:39;;;;;;;23.90;11.80;;;;;;;-2.38;67.65;99928.66;5032295;28;20043;-62
2022/12/17 18:40:06;;;;;;;27.13;16.10;;;;;;;-2.46;68.71;99938.50;5031536;28;20386;-62
2022/12/17 18:45:37;;;;;;;32.17;15.15;;;;;;;-2.31;68.39;99926.75;5029564;28;20033;-63
2022/12/17 18:48:03;;;;;;;29.10;14.20;;;;;;;-2.36;68.54;99926.03;5029985;28;20126;-61
2022/12/17 18:50:29;;;;;;;28.25;15.27;;;;;;;-2.36;68.49;99921.63;5029462;28;20044;-62
2022/12/17 18:52:54;;;;;;;27.23;14.95;;;;;;;-2.35;68.70;99922.50;5029834;28;20068;-61
2022/12/17 18:55:20;;;;;;;27.40;14.63;;;;;;;-2.36;68.23;99912.91;5030081;28;20044;-62
2022/12/17 18:57:46;;;;;;;27.73;14.55;;;;;;;-2.55;69.42;99899.38;5029864;28;20057;-62
2022/12/17 19:00:12;;;;;;;26.15;15.35;;;;;;;-2.61;69.51;99877.69;5030129;28;20061;-61
2022/12/17 19:02:38;;;;;;;26.40;13.63;;;;;;;-2.21;68.51;99890.66;5030094;28;20052;-62
2022/12/17 19:05:03;;;;;;;26.98;15.70;;;;;;;-2.56;69.68;99880.19;5029679;28;20029;-59
2022/12/17 19:07:29;;;;;;;29.52;16.52;;;;;;;-2.51;69.96;99888.78;5030247;28;20364;-63
2022/12/17 19:09:54;;;;;;;16.55;8.48;;;;;;;-2.13;68.93;99890.47;5033322;28;20411;-63
2022/12/17 19:12:20;;;;;;;26.40;14.10;;;;;;;-2.01;67.67;99879.59;5034356;28;20077;-62
2022/12/17 19:14:45;;;;;;;29.70;16.25;;;;;;;-2.13;67.50;99874.72;5033767;28;20041;-62
2022/12/17 19:17:11;;;;;;;31.05;15.63;;;;;;;-2.25;67.96;99871.50;5030449;28;20325;-63
2022/12/17 19:19:36;;;;;;;26.63;14.68;;;;;;;-2.32;68.19;99869.97;5035678;28;20463;-55
2022/12/17 19:22:02;;;;;;;23.55;11.75;;;;;;;-2.48;68.75;99856.41;5036397;28;20033;-61
2022/12/17 19:24:28;;;;;;;28.70;16.15;;;;;;;-2.43;68.30;99853.63;5036055;28;20076;-63
2022/12/17 19:26:53;;;;;;;27.45;14.00;;;;;;;-2.30;68.04;99862.91;5035263;28;20117;-62
2022/12/17 19:29:19;;;;;;;29.85;15.43;;;;;;;-2.35;69.14;99859.56;5034464;28;20041;-62
2022/12/17 19:31:46;;;;;;;26.92;15.95;;;;;;;-2.47;68.87;99861.59;5036084;28;20030;-62
2022/12/17 19:34:13;;;;;;;29.40;15.00;;;;;;;-2.46;68.79;99860.69;5035759;28;20064;-62
2022/12/17 19:36:40;;;;;;;20.38;8.43;;;;;;;-2.08;67.98;99857.09;5034391;28;20036;-63
2022/12/17 19:39:09;;;;;;;25.95;13.15;;;;;;;-2.17;67.03;99855.56;5035313;28;20033;-58
2022/12/17 19:41:35;;;;;;;24.83;14.07;;;;;;;-2.45;68.33;99851.91;5035728;28;20037;-59
2022/12/17 19:44:03;;;;;;;27.45;14.35;;;;;;;-2.49;68.23;99854.69;5035867;28;20032;-58
2022/12/17 19:46:30;;;;;;;26.02;14.98;;;;;;;-2.55;68.80;99839.97;5035783;28;20040;-59
2022/12/17 19:48:56;;;;;;;16.92;8.00;;;;;;;-2.54;68.19;99799.75;5035472;28;20352;-61
2022/12/17 19:51:23;;;;;;;22.42;12.23;;;;;;;-2.55;68.26;99816.38;5035653;28;20046;-55
2022/12/17 19:53:49;;;;;;;26.83;13.63;;;;;;;-2.61;68.08;99834.91;5034407;28;20477;-58
2022/12/17 19:56:23;;;;;;;23.92;13.95;;;;;;;-2.62;68.50;99833.19;5035155;28;20021;-61
2022/12/17 19:58:55;;;;;;;30.38;12.77;;;;;;;-2.37;67.55;99835.16;5035548;28;20041;-56
2022/12/17 20:01:24;;;;;;;25.95;13.30;;;;;;;-2.61;68.44;99833.13;5034380;28;20172;-60
2022/12/17 20:03:50;;;;;;;22.05;11.98;;;;;;;-2.54;68.93;99833.81;5035563;28;20037;-56
2022/12/17 20:06:17;;;;;;;24.45;12.60;;;;;;;-2.78;69.10;99790.75;5034962;28;20057;-57
2022/12/17 20:08:43;;;;;;;26.45;12.68;;;;;;;-2.46;67.79;99825.75;5035255;28;20109;-61
2022/12/17 20:14:01;;;;;;;26.38;14.75;;;;;;;-2.66;68.68;99795.69;5034846;28;20088;-55
2022/12/17 20:16:28;;;;;;;23.35;11.55;;;;;;;-2.55;68.89;99805.88;5026756;28;20060;-53
2022/12/17 20:18:54;;;;;;;23.17;11.38;;;;;;;-2.51;68.27;99811.91;5024831;28;20037;-59
2022/12/17 20:21:19;;;;;;;20.20;11.57;;;;;;;-2.34;67.83;99801.81;5023853;28;20027;-55
2022/12/17 20:23:49;;;;;;;26.90;14.60;;;;;;;-2.56;68.18;99804.16;5024309;28;20427;-53
2022/12/17 20:26:15;;;;;;;23.77;13.02;;;;;;;-2.58;68.29;99805.97;5028395;28;20061;-58
2022/12/17 20:28:41;;;;;;;22.90;13.55;;;;;;;-2.88;69.25;99767.44;5033710;28;20033;-57
2022/12/17 20:31:07;;;;;;;14.15;7.80;;;;;;;-2.59;69.33;99772.81;5017058;28;20033;-57
2022/12/17 20:33:32;;;;;;;16.20;7.00;;;;;;;-2.18;67.47;99772.53;5033954;28;20049;-57
2022/12/17 20:36:06;;;;;;;22.30;11.32;;;;;;;-2.33;67.53;99769.44;5034484;28;20080;-60
2022/12/17 20:38:31;;;;;;;27.42;15.75;;;;;;;-2.58;68.47;99764.03;5034611;28;20049;-62
2022/12/17 20:40:57;;;;;;;24.67;13.00;;;;;;;-2.46;67.91;99766.31;5034793;28;20030;-61
2022/12/17 20:43:22;;;;;;;23.77;13.80;;;;;;;-2.63;68.19;99766.78;5034330;28;20029;-62
2022/12/17 20:45:51;;;;;;;25.75;14.02;;;;;;;-2.91;69.91;99757.03;5034117;28;20040;-62
2022/12/17 20:48:17;;;;;;;21.95;10.32;;;;;;;-2.72;69.41;99750.44;5034055;28;20036;-61
2022/12/17 20:50:43;;;;;;;25.02;12.07;;;;;;;-2.46;68.62;99762.84;5066843;28;20052;-61
2022/12/17 20:53:09;;;;;;;17.00;8.70;;;;;;;-2.42;68.52;99745.22;5033287;28;20030;-60
2022/12/17 20:55:34;;;;;;;27.55;13.82;;;;;;;-2.82;69.73;99736.72;5033504;28;20355;-53
2022/12/17 20:58:00;;;;;;;18.95;10.95;;;;;;;-2.75;69.48;99738.28;5022876;28;20100;-56
2022/12/17 21:00:25;;;;;;;25.13;12.23;;;;;;;-2.66;69.37;99730.16;5023084;28;20037;-61
2022/12/17 21:02:51;;;;;;;24.80;12.65;;;;;;;-2.59;69.43;99715.13;5024760;28;20432;-61
2022/12/17 21:05:16;;;;;;;23.58;13.63;;;;;;;-2.92;70.51;99707.28;5023299;28;20040;-55
2022/12/17 21:07:43;;;;;;;26.73;13.80;;;;;;;-2.89;71.02;99717.72;5033791;28;20029;-61
2022/12/17 21:10:09;;;;;;;24.55;13.57;;;;;;;-2.91;69.68;99674.94;5033437;28;20459;-62
2022/12/17 21:15:18;;;;;;;22.38;12.45;;;;;;;-2.64;69.85;99680.34;5031896;28;20422;-56
2022/12/17 21:17:44;;;;;;;22.58;13.02;;;;;;;-2.74;69.80;99680.56;5033470;28;20104;-57
2022/12/17 21:20:10;;;;;;;22.50;12.50;;;;;;;-2.70;70.01;99683.09;5033780;28;20032;-58
2022/12/17 21:22:35;;;;;;;21.85;12.32;;;;;;;-2.58;69.42;99669.66;5032734;28;20360;-62
2022/12/17 21:25:01;;;;;;;20.98;12.98;;;;;;;-2.72;69.78;99667.44;5033971;28;20038;-60
2022/12/17 21:27:27;;;;;;;21.67;12.20;;;;;;;-2.70;69.74;99656.91;5033716;28;20448;-58
2022/12/17 21:29:52;;;;;;;16.70;7.90;;;;;;;-2.57;69.33;99634.69;5033488;28;20022;-55
2022/12/17 21:32:18;;;;;;;26.70;13.55;;;;;;;-2.72;70.51;99637.75;5032821;28;20112;-62
2022/12/17 21:34:43;;;;;;;22.63;13.27;;;;;;;-2.72;69.90;99625.50;5033583;28;20033;-58
2022/12/17 21:37:10;;;;;;;23.58;12.38;;;;;;;-2.92;70.82;99581.53;5033897;28;20114;-54
2022/12/17 21:39:35;;;;;;;21.88;12.95;;;;;;;-2.64;69.83;99605.16;5033043;28;20439;-52
2022/12/17 21:44:45;;;;;;;18.83;9.65;;;;;;;-2.35;69.04;99592.94;5033206;28;20405;-59
2022/12/17 21:47:10;;;;;;;24.30;12.55;;;;;;;-2.58;69.36;99598.91;5032665;28;20501;-62
2022/12/17 21:49:36;;;;;;;20.35;11.07;;;;;;;-2.44;68.51;99593.22;5033489;28;20049;-58
2022/12/17 21:52:01;;;;;;;20.17;12.48;;;;;;;-2.81;68.57;99574.22;5032255;28;20397;-57
2022/12/17 21:54:27;;;;;;;22.15;12.45;;;;;;;-2.83;69.65;99588.28;5022673;28;20440;-58
2022/12/17 21:56:53;;;;;;;21.90;12.98;;;;;;;-2.96;70.26;99579.91;5023945;28;20121;-52
2022/12/17 21:59:18;;;;;;;16.50;8.30;;;;;;;-2.59;69.83;99589.31;5032551;28;20352;-55
2022/12/17 22:01:44;;;;;;;21.48;11.80;;;;;;;-2.73;69.67;99587.13;5032611;28;20396;-57
2022/12/17 22:04:09;;;;;;;16.98;9.18;;;;;;;-2.85;69.95;99542.91;5024227;28;20040;-56
2022/12/17 22:06:37;;;;;;;19.80;11.93;;;;;;;-2.88;70.35;99589.25;5022619;28;20029;-58
2022/12/17 22:09:05;;;;;;;20.35;10.38;;;;;;;-2.76;70.47;99582.81;5022354;28;20035;-58
2022/12/17 22:11:30;;;;;;;19.65;11.13;;;;;;;-2.96;70.12;99540.63;5032232;28;20021;-55
2022/12/17 22:14:05;;;;;;;23.17;12.70;;;;;;;-2.83;70.51;99583.03;5006541;28;20060;-55
2022/12/17 22:16:45;;;;;;;17.60;10.57;;;;;;;-2.63;69.22;99585.91;5032206;28;20033;-57
2022/12/17 22:19:15;;;;;;;17.17;10.70;;;;;;;-2.75;69.82;99576.66;5031365;28;20033;-55
2022/12/17 22:21:42;;;;;;;22.65;11.38;;;;;;;-2.68;69.65;99568.59;5030124;28;20183;-56
2022/12/17 22:24:16;;;;;;;21.08;11.57;;;;;;;-2.85;69.78;99562.13;5032539;28;20104;-56
2022/12/17 22:26:42;;;;;;;20.13;11.73;;;;;;;-2.85;70.09;99569.13;5029828;28;20041;-60
2022/12/17 22:29:08;;;;;;;19.98;11.50;;;;;;;-2.95;70.40;99550.19;5056093;28;20051;-56
2022/12/17 22:34:17;;;;;;;22.95;12.10;;;;;;;-2.62;68.54;99531.75;5031609;28;20021;-55
2022/12/17 22:36:43;;;;;;;19.70;11.43;;;;;;;-2.89;70.43;99529.91;5032069;28;20352;-60
2022/12/17 22:39:12;;;;;;;23.95;12.43;;;;;;;-3.09;71.78;99524.41;5027011;28;20044;-59
2022/12/17 22:44:22;;;;;;;19.98;9.98;;;;;;;-2.84;70.83;99527.16;5031892;28;20478;-54
2022/12/17 22:46:48;;;;;;;17.23;9.50;;;;;;;-2.72;70.72;99509.34;5032537;28;20113;-59
2022/12/17 22:49:14;;;;;;;19.50;11.38;;;;;;;-2.95;71.31;99516.13;5032727;28;20073;-63
2022/12/17 22:51:41;;;;;;;19.95;11.18;;;;;;;-2.88;71.18;99505.44;5032219;28;20038;-62
2022/12/17 22:54:08;;;;;;;16.13;9.32;;;;;;;-2.85;70.86;99495.75;5032630;28;20033;-54
2022/12/17 22:56:38;;;;;;;21.13;11.07;;;;;;;-3.02;71.28;99478.78;5032367;28;20037;-57
2022/12/17 22:59:04;;;;;;;10.80;5.60;;;;;;;-3.03;71.33;99454.38;5031270;28;20025;-58
2022/12/17 23:01:30;;;;;;;18.88;10.65;;;;;;;-2.93;70.17;99467.16;5032200;28;20394;-60
2022/12/17 23:03:57;;;;;;;18.83;10.75;;;;;;;-3.03;71.38;99463.97;5032421;28;20052;-58
2022/12/17 23:06:24;;;;;;;17.08;10.75;;;;;;;-3.12;71.31;99473.00;5031359;28;20332;-59
2022/12/17 23:08:50;;;;;;;18.20;10.63;;;;;;;-3.25;72.20;99451.56;5032010;28;20029;-62
2022/12/17 23:11:18;;;;;;;14.25;6.88;;;;;;;-2.87;70.64;99459.13;5032499;28;20124;-59
2022/12/17 23:13:44;;;;;;;16.20;9.00;;;;;;;-2.98;71.55;99450.75;5032854;28;20044;-60
2022/12/17 23:16:12;;;;;;;17.77;10.25;;;;;;;-3.33;72.22;99401.16;5031981;28;20112;-56
2022/12/17 23:18:38;;;;;;;16.65;9.02;;;;;;;-3.11;72.87;99439.78;5031832;28;20038;-62
2022/12/17 23:21:06;;;;;;;14.10;8.07;;;;;;;-2.94;71.56;99445.38;5032305;28;20026;-61
2022/12/17 23:23:32;;;;;;;17.60;8.77;;;;;;;-3.17;71.41;99399.81;5032410;28;20040;-62
2022/12/17 23:25:57;;;;;;;15.10;7.35;;;;;;;-2.99;71.29;99422.84;5032264;28;20112;-62
2022/12/17 23:28:23;;;;;;;17.23;9.35;;;;;;;-3.16;72.34;99418.97;5031545;28;20057;-61
2022/12/17 23:30:48;;;;;;;15.93;9.32;;;;;;;-3.26;72.49;99421.00;5031922;28;20060;-62
2022/12/17 23:33:13;;;;;;;15.88;9.13;;;;;;;-3.06;71.72;99406.44;5032752;28;20105;-60
2022/12/17 23:35:39;;;;;;;16.92;8.82;;;;;;;-3.09;71.56;99402.19;5031886;28;20099;-61
2022/12/17 23:38:04;;;;;;;16.17;9.43;;;;;;;-3.20;72.43;99406.88;5030836;28;20108;-62
2022/12/17 23:40:30;;;;;;;17.13;9.52;;;;;;;-3.34;71.34;99355.81;5032106;28;20424;-62
2022/12/17 23:42:56;;;;;;;14.43;9.15;;;;;;;-3.18;72.29;99397.22;5031008;28;20091;-63
2022/12/17 23:45:21;;;;;;;15.23;10.02;;;;;;;-3.26;72.93;99394.81;5031845;28;20033;-62
2022/12/17 23:47:47;;;;;;;18.70;9.98;;;;;;;-3.41;73.09;99359.50;5031856;28;20029;-62
2022/12/17 23:50:13;;;;;;;16.02;9.10;;;;;;;-3.19;72.58;99377.16;5032115;28;20079;-63
2022/12/17 23:52:38;;;;;;;17.17;9.82;;;;;;;-3.10;72.56;99395.22;5031648;28;20048;-63
2022/12/17 23:55:04;;;;;;;19.08;9.68;;;;;;;-3.43;72.69;99348.22;5033420;28;20052;-64
2022/12/17 23:57:30;;;;;;;20.23;8.98;;;;;;;-2.89;71.87;99382.38;5034174;28;20073;-62
2022/12/17 23:59:55;;;;;;;12.90;7.57;;;;;;;-2.96;72.00;99365.97;5034256;28;20301;-62
